sensor_id;sensor_type;location;lat;lon;timestamp;pressure;altitude;pressure_sealevel;temperature;humidity
59951;BME280;45812;53.540;9.774;2023-04-27T00:02:05;101903.94;;;4.64;87.87
59951;BME280;45812;53.540;9.774;2023-04-27T00:04:30;101901.59;;;4.60;88.20
59951;BME280;45812;53.540;9.774;2023-04-27T00:06:56;101898.31;;;4.56;87.99
59951;BME280;45812;53.540;9.774;2023-04-27T00:09:21;101899.47;;;4.52;88.31
59951;BME280;45812;53.540;9.774;2023-04-27T00:11:47;101897.97;;;4.48;88.46
59951;BME280;45812;53.540;9.774;2023-04-27T00:14:12;101894.66;;;4.44;89.27
59951;BME280;45812;53.540;9.774;2023-04-27T00:16:37;101894.75;;;4.43;89.43
59951;BME280;45812;53.540;9.774;2023-04-27T00:19:02;101893.25;;;4.39;89.33
59951;BME280;45812;53.540;9.774;2023-04-27T00:21:28;101887.25;;;4.37;89.68
59951;BME280;45812;53.540;9.774;2023-04-27T00:23:53;101888.38;;;4.33;89.33
59951;BME280;45812;53.540;9.774;2023-04-27T00:26:18;101888.56;;;4.30;89.50
59951;BME280;45812;53.540;9.774;2023-04-27T00:28:45;101893.06;;;4.28;90.16
59951;BME280;45812;53.540;9.774;2023-04-27T00:31:11;101889.69;;;4.25;90.09
59951;BME280;45812;53.540;9.774;2023-04-27T00:33:36;101890.72;;;4.23;90.40
59951;BME280;45812;53.540;9.774;2023-04-27T00:36:01;101886.69;;;4.17;90.43
59951;BME280;45812;53.540;9.774;2023-04-27T00:38:27;101884.25;;;4.14;90.76
59951;BME280;45812;53.540;9.774;2023-04-27T00:41:04;101897.63;;;4.11;90.84
59951;BME280;45812;53.540;9.774;2023-04-27T00:43:29;101897.97;;;4.05;90.98
59951;BME280;45812;53.540;9.774;2023-04-27T00:45:55;101896.47;;;4.01;91.39
59951;BME280;45812;53.540;9.774;2023-04-27T00:48:20;101897.59;;;3.97;91.32
59951;BME280;45812;53.540;9.774;2023-04-27T00:50:46;101903.91;;;3.94;92.01
59951;BME280;45812;53.540;9.774;2023-04-27T00:53:11;101904.09;;;3.91;91.65
59951;BME280;45812;53.540;9.774;2023-04-27T00:55:37;101905.09;;;3.89;92.45
59951;BME280;45812;53.540;9.774;2023-04-27T00:58:02;101910.38;;;3.89;92.61
59951;BME280;45812;53.540;9.774;2023-04-27T01:00:27;101908.69;;;3.88;92.91
59951;BME280;45812;53.540;9.774;2023-04-27T01:02:54;101911.91;;;3.93;92.86
59951;BME280;45812;53.540;9.774;2023-04-27T01:05:19;101908.03;;;3.99;92.58
59951;BME280;45812;53.540;9.774;2023-04-27T01:07:45;101911.53;;;3.99;92.75
59951;BME280;45812;53.540;9.774;2023-04-27T01:10:10;101918.03;;;3.93;92.85
59951;BME280;45812;53.540;9.774;2023-04-27T01:12:35;101909.63;;;3.87;93.85
59951;BME280;45812;53.540;9.774;2023-04-27T01:15:00;101914.44;;;3.80;93.83
59951;BME280;45812;53.540;9.774;2023-04-27T01:17:26;101911.97;;;3.77;94.25
59951;BME280;45812;53.540;9.774;2023-04-27T01:19:51;101904.38;;;3.73;94.52
59951;BME280;45812;53.540;9.774;2023-04-27T01:22:20;101911.56;;;3.69;94.30
59951;BME280;45812;53.540;9.774;2023-04-27T01:24:45;101909.97;;;3.67;94.78
59951;BME280;45812;53.540;9.774;2023-04-27T01:27:11;101921.63;;;3.62;95.39
59951;BME280;45812;53.540;9.774;2023-04-27T01:29:36;101929.63;;;3.61;95.24
59951;BME280;45812;53.540;9.774;2023-04-27T01:32:02;101927.25;;;3.56;95.76
59951;BME280;45812;53.540;9.774;2023-04-27T01:34:27;101931.00;;;3.52;95.57
59951;BME280;45812;53.540;9.774;2023-04-27T01:36:52;101929.56;;;3.47;96.04
59951;BME280;45812;53.540;9.774;2023-04-27T01:39:18;101946.41;;;3.44;96.88
59951;BME280;45812;53.540;9.774;2023-04-27T01:41:43;101935.97;;;3.43;97.02
59951;BME280;45812;53.540;9.774;2023-04-27T01:44:08;101940.38;;;3.42;97.97
59951;BME280;45812;53.540;9.774;2023-04-27T01:46:33;101937.66;;;3.44;97.30
59951;BME280;45812;53.540;9.774;2023-04-27T01:48:59;101945.44;;;3.45;97.92
59951;BME280;45812;53.540;9.774;2023-04-27T01:51:24;101945.53;;;3.44;98.23
59951;BME280;45812;53.540;9.774;2023-04-27T01:53:49;101948.28;;;3.42;97.87
59951;BME280;45812;53.540;9.774;2023-04-27T01:56:15;101957.94;;;3.42;97.81
59951;BME280;45812;53.540;9.774;2023-04-27T01:58:40;101961.53;;;3.41;97.72
59951;BME280;45812;53.540;9.774;2023-04-27T02:01:05;101965.94;;;3.40;97.91
59951;BME280;45812;53.540;9.774;2023-04-27T02:03:30;101960.66;;;3.40;98.42
59951;BME280;45812;53.540;9.774;2023-04-27T02:05:56;101964.72;;;3.46;98.32
59951;BME280;45812;53.540;9.774;2023-04-27T02:08:21;101967.69;;;3.55;99.16
59951;BME280;45812;53.540;9.774;2023-04-27T02:10:46;101962.53;;;3.68;100.00
59951;BME280;45812;53.540;9.774;2023-04-27T02:13:12;101974.25;;;3.78;100.00
59951;BME280;45812;53.540;9.774;2023-04-27T02:15:37;101957.88;;;3.87;100.00
59951;BME280;45812;53.540;9.774;2023-04-27T02:18:02;101962.72;;;3.95;100.00
59951;BME280;45812;53.540;9.774;2023-04-27T02:20:29;101956.97;;;4.03;100.00
59951;BME280;45812;53.540;9.774;2023-04-27T02:22:55;101948.03;;;4.05;100.00
59951;BME280;45812;53.540;9.774;2023-04-27T02:25:20;101956.53;;;4.10;100.00
59951;BME280;45812;53.540;9.774;2023-04-27T02:27:45;101954.84;;;4.09;100.00
59951;BME280;45812;53.540;9.774;2023-04-27T02:30:11;101958.03;;;4.14;100.00
59951;BME280;45812;53.540;9.774;2023-04-27T02:32:36;101967.72;;;4.14;100.00
59951;BME280;45812;53.540;9.774;2023-04-27T02:35:02;101966.47;;;4.05;100.00
59951;BME280;45812;53.540;9.774;2023-04-27T02:37:28;101977.66;;;3.94;100.00
59951;BME280;45812;53.540;9.774;2023-04-27T02:39:53;101964.28;;;3.83;100.00
59951;BME280;45812;53.540;9.774;2023-04-27T02:42:19;101959.47;;;3.76;100.00
59951;BME280;45812;53.540;9.774;2023-04-27T02:44:45;101962.44;;;3.70;100.00
59951;BME280;45812;53.540;9.774;2023-04-27T02:47:10;101961.13;;;3.62;100.00
59951;BME280;45812;53.540;9.774;2023-04-27T02:49:35;101973.72;;;3.57;100.00
59951;BME280;45812;53.540;9.774;2023-04-27T02:52:01;101965.22;;;3.52;100.00
59951;BME280;45812;53.540;9.774;2023-04-27T02:54:26;101962.94;;;3.46;100.00
59951;BME280;45812;53.540;9.774;2023-04-27T02:56:51;101966.59;;;3.44;100.00
59951;BME280;45812;53.540;9.774;2023-04-27T02:59:16;101959.91;;;3.38;100.00
59951;BME280;45812;53.540;9.774;2023-04-27T03:01:42;101967.91;;;3.37;100.00
59951;BME280;45812;53.540;9.774;2023-04-27T03:04:07;101966.13;;;3.37;100.00
59951;BME280;45812;53.540;9.774;2023-04-27T03:06:32;101972.06;;;3.41;100.00
59951;BME280;45812;53.540;9.774;2023-04-27T03:08:57;101972.53;;;3.47;100.00
59951;BME280;45812;53.540;9.774;2023-04-27T03:11:23;101965.41;;;3.49;100.00
59951;BME280;45812;53.540;9.774;2023-04-27T03:13:48;101969.72;;;3.50;100.00
59951;BME280;45812;53.540;9.774;2023-04-27T03:16:13;101965.41;;;3.49;100.00
59951;BME280;45812;53.540;9.774;2023-04-27T03:18:39;101967.44;;;3.44;99.97
59951;BME280;45812;53.540;9.774;2023-04-27T03:21:08;101963.41;;;3.39;100.00
59951;BME280;45812;53.540;9.774;2023-04-27T03:23:33;101970.44;;;3.38;100.00
59951;BME280;45812;53.540;9.774;2023-04-27T03:25:59;101974.78;;;3.39;100.00
59951;BME280;45812;53.540;9.774;2023-04-27T03:28:25;101972.63;;;3.46;100.00
59951;BME280;45812;53.540;9.774;2023-04-27T03:30:50;101971.16;;;3.56;100.00
59951;BME280;45812;53.540;9.774;2023-04-27T03:33:16;101976.72;;;3.65;100.00
59951;BME280;45812;53.540;9.774;2023-04-27T03:35:42;101978.75;;;3.76;99.50
59951;BME280;45812;53.540;9.774;2023-04-27T03:38:07;101980.75;;;3.87;99.01
59951;BME280;45812;53.540;9.774;2023-04-27T03:40:32;101983.97;;;3.92;98.40
59951;BME280;45812;53.540;9.774;2023-04-27T03:42:58;101976.53;;;3.99;97.83
59951;BME280;45812;53.540;9.774;2023-04-27T03:45:23;101977.94;;;4.04;97.45
59951;BME280;45812;53.540;9.774;2023-04-27T03:47:48;101963.75;;;3.92;97.86
59951;BME280;45812;53.540;9.774;2023-04-27T03:50:14;101968.31;;;3.89;98.93
59951;BME280;45812;53.540;9.774;2023-04-27T03:52:40;101979.97;;;3.85;99.28
59951;BME280;45812;53.540;9.774;2023-04-27T03:55:05;101981.88;;;3.83;99.88
59951;BME280;45812;53.540;9.774;2023-04-27T03:57:31;101982.63;;;3.85;100.00
59951;BME280;45812;53.540;9.774;2023-04-27T03:59:56;101980.56;;;3.90;100.00
59951;BME280;45812;53.540;9.774;2023-04-27T04:02:21;101980.41;;;3.93;100.00
59951;BME280;45812;53.540;9.774;2023-04-27T04:04:47;101977.75;;;3.93;100.00
59951;BME280;45812;53.540;9.774;2023-04-27T04:07:12;101978.19;;;3.85;100.00
59951;BME280;45812;53.540;9.774;2023-04-27T04:09:38;101981.28;;;3.78;100.00
59951;BME280;45812;53.540;9.774;2023-04-27T04:12:03;101980.88;;;3.70;100.00
59951;BME280;45812;53.540;9.774;2023-04-27T04:14:28;101976.91;;;3.62;100.00
59951;BME280;45812;53.540;9.774;2023-04-27T04:16:54;101985.28;;;3.55;100.00
59951;BME280;45812;53.540;9.774;2023-04-27T04:19:19;101988.16;;;3.50;100.00
59951;BME280;45812;53.540;9.774;2023-04-27T04:21:44;102000.56;;;3.48;100.00
59951;BME280;45812;53.540;9.774;2023-04-27T04:24:09;101990.19;;;3.45;100.00
59951;BME280;45812;53.540;9.774;2023-04-27T04:26:35;101996.41;;;3.44;100.00
59951;BME280;45812;53.540;9.774;2023-04-27T04:29:01;102002.50;;;3.45;100.00
59951;BME280;45812;53.540;9.774;2023-04-27T04:31:26;102000.72;;;3.45;100.00
59951;BME280;45812;53.540;9.774;2023-04-27T04:33:51;102005.06;;;3.46;100.00
59951;BME280;45812;53.540;9.774;2023-04-27T04:36:17;102005.81;;;3.48;100.00
59951;BME280;45812;53.540;9.774;2023-04-27T04:38:42;102005.72;;;3.50;100.00
59951;BME280;45812;53.540;9.774;2023-04-27T04:41:07;102005.72;;;3.50;100.00
59951;BME280;45812;53.540;9.774;2023-04-27T04:43:34;101994.63;;;3.45;100.00
59951;BME280;45812;53.540;9.774;2023-04-27T04:45:59;102006.56;;;3.50;100.00
59951;BME280;45812;53.540;9.774;2023-04-27T04:48:24;102004.69;;;3.52;100.00
59951;BME280;45812;53.540;9.774;2023-04-27T04:50:49;102019.59;;;3.53;100.00
59951;BME280;45812;53.540;9.774;2023-04-27T04:53:15;102014.22;;;3.55;100.00
59951;BME280;45812;53.540;9.774;2023-04-27T04:55:40;102012.53;;;3.54;100.00
59951;BME280;45812;53.540;9.774;2023-04-27T04:58:05;102023.91;;;3.54;100.00
59951;BME280;45812;53.540;9.774;2023-04-27T05:00:31;102028.38;;;3.52;100.00
59951;BME280;45812;53.540;9.774;2023-04-27T05:02:56;102025.75;;;3.52;100.00
59951;BME280;45812;53.540;9.774;2023-04-27T05:05:21;102023.91;;;3.54;100.00
59951;BME280;45812;53.540;9.774;2023-04-27T05:07:46;102028.25;;;3.55;100.00
59951;BME280;45812;53.540;9.774;2023-04-27T05:10:12;102031.81;;;3.54;100.00
59951;BME280;45812;53.540;9.774;2023-04-27T05:12:37;102021.09;;;3.57;100.00
59951;BME280;45812;53.540;9.774;2023-04-27T05:15:03;102024.13;;;3.65;100.00
59951;BME280;45812;53.540;9.774;2023-04-27T05:17:28;102022.59;;;3.77;100.00
59951;BME280;45812;53.540;9.774;2023-04-27T05:19:54;102023.38;;;3.93;100.00
59951;BME280;45812;53.540;9.774;2023-04-27T05:22:19;102025.69;;;4.14;100.00
59951;BME280;45812;53.540;9.774;2023-04-27T05:24:44;102028.63;;;4.38;99.32
59951;BME280;45812;53.540;9.774;2023-04-27T05:27:11;102029.50;;;4.52;99.11
59951;BME280;45812;53.540;9.774;2023-04-27T05:29:36;102029.41;;;4.68;99.17
59951;BME280;45812;53.540;9.774;2023-04-27T05:32:02;102028.00;;;4.77;97.96
59951;BME280;45812;53.540;9.774;2023-04-27T05:34:27;102023.47;;;4.79;97.76
59951;BME280;45812;53.540;9.774;2023-04-27T05:36:52;102030.91;;;4.86;97.78
59951;BME280;45812;53.540;9.774;2023-04-27T05:39:17;102032.41;;;5.05;98.37
59951;BME280;45812;53.540;9.774;2023-04-27T05:41:43;102041.84;;;5.36;96.55
59951;BME280;45812;53.540;9.774;2023-04-27T05:44:08;102029.34;;;5.52;94.85
59951;BME280;45812;53.540;9.774;2023-04-27T05:46:33;102031.88;;;5.54;94.30
59951;BME280;45812;53.540;9.774;2023-04-27T05:48:59;102029.34;;;5.52;93.25
59951;BME280;45812;53.540;9.774;2023-04-27T05:51:24;102038.63;;;5.45;92.59
59951;BME280;45812;53.540;9.774;2023-04-27T05:53:49;102036.44;;;5.37;92.67
59951;BME280;45812;53.540;9.774;2023-04-27T05:56:17;102045.72;;;5.30;93.89
59951;BME280;45812;53.540;9.774;2023-04-27T05:58:43;102045.47;;;5.21;94.19
59951;BME280;45812;53.540;9.774;2023-04-27T06:01:08;102056.31;;;5.16;95.78
59951;BME280;45812;53.540;9.774;2023-04-27T06:03:33;102051.13;;;5.14;96.27
59951;BME280;45812;53.540;9.774;2023-04-27T06:05:59;102039.06;;;5.10;95.84
59951;BME280;45812;53.540;9.774;2023-04-27T06:08:26;102036.72;;;5.06;96.19
59951;BME280;45812;53.540;9.774;2023-04-27T06:10:52;102056.81;;;5.08;96.52
59951;BME280;45812;53.540;9.774;2023-04-27T06:13:17;102046.03;;;5.11;96.44
59951;BME280;45812;53.540;9.774;2023-04-27T06:15:42;102048.69;;;5.11;97.22
59951;BME280;45812;53.540;9.774;2023-04-27T06:18:07;102045.19;;;5.11;96.69
59951;BME280;45812;53.540;9.774;2023-04-27T06:20:33;102047.09;;;5.09;96.45
59951;BME280;45812;53.540;9.774;2023-04-27T06:22:58;102049.44;;;5.13;96.86
59951;BME280;45812;53.540;9.774;2023-04-27T06:25:24;102045.00;;;5.14;96.53
59951;BME280;45812;53.540;9.774;2023-04-27T06:27:51;102050.75;;;5.21;98.24
59951;BME280;45812;53.540;9.774;2023-04-27T06:30:16;102059.22;;;5.26;97.24
59951;BME280;45812;53.540;9.774;2023-04-27T06:32:41;102053.75;;;5.29;95.99
59951;BME280;45812;53.540;9.774;2023-04-27T06:35:07;102048.16;;;5.33;95.13
59951;BME280;45812;53.540;9.774;2023-04-27T06:37:32;102045.22;;;5.38;96.22
59951;BME280;45812;53.540;9.774;2023-04-27T06:39:58;102049.28;;;5.43;94.49
59951;BME280;45812;53.540;9.774;2023-04-27T06:42:23;102039.06;;;5.52;92.19
59951;BME280;45812;53.540;9.774;2023-04-27T06:44:48;102048.28;;;5.59;91.96
59951;BME280;45812;53.540;9.774;2023-04-27T06:47:17;102039.00;;;5.66;91.40
59951;BME280;45812;53.540;9.774;2023-04-27T06:49:42;102038.69;;;5.70;91.81
59951;BME280;45812;53.540;9.774;2023-04-27T06:52:07;102023.84;;;5.82;91.11
59951;BME280;45812;53.540;9.774;2023-04-27T06:54:33;102032.03;;;5.92;89.69
59951;BME280;45812;53.540;9.774;2023-04-27T06:56:58;102030.69;;;5.99;89.41
59951;BME280;45812;53.540;9.774;2023-04-27T06:59:23;102039.25;;;6.02;88.32
59951;BME280;45812;53.540;9.774;2023-04-27T07:01:48;102050.88;;;6.00;89.55
59951;BME280;45812;53.540;9.774;2023-04-27T07:04:13;102055.09;;;6.02;88.71
59951;BME280;45812;53.540;9.774;2023-04-27T07:06:39;102057.00;;;6.00;88.46
59951;BME280;45812;53.540;9.774;2023-04-27T07:09:04;102069.06;;;6.04;88.75
59951;BME280;45812;53.540;9.774;2023-04-27T07:11:30;102070.53;;;6.08;89.39
59951;BME280;45812;53.540;9.774;2023-04-27T07:13:55;102084.97;;;6.17;88.63
59951;BME280;45812;53.540;9.774;2023-04-27T07:16:21;102079.34;;;6.22;89.48
59951;BME280;45812;53.540;9.774;2023-04-27T07:18:46;102079.03;;;6.26;87.93
59951;BME280;45812;53.540;9.774;2023-04-27T07:21:11;102081.56;;;6.28;88.40
59951;BME280;45812;53.540;9.774;2023-04-27T07:23:38;102076.72;;;6.34;87.14
59951;BME280;45812;53.540;9.774;2023-04-27T07:26:04;102088.47;;;6.43;87.36
59951;BME280;45812;53.540;9.774;2023-04-27T07:28:29;102083.53;;;6.51;85.02
59951;BME280;45812;53.540;9.774;2023-04-27T07:30:55;102083.41;;;6.65;84.88
59951;BME280;45812;53.540;9.774;2023-04-27T07:33:22;102089.31;;;6.94;83.09
59951;BME280;45812;53.540;9.774;2023-04-27T07:35:47;102083.63;;;7.37;80.75
59951;BME280;45812;53.540;9.774;2023-04-27T07:38:14;102081.94;;;7.60;79.75
59951;BME280;45812;53.540;9.774;2023-04-27T07:40:41;102087.03;;;7.87;78.39
59951;BME280;45812;53.540;9.774;2023-04-27T07:43:06;102085.19;;;8.11;76.08
59951;BME280;45812;53.540;9.774;2023-04-27T07:45:32;102086.56;;;8.28;75.81
59951;BME280;45812;53.540;9.774;2023-04-27T07:47:58;102092.84;;;8.27;75.03
59951;BME280;45812;53.540;9.774;2023-04-27T07:50:28;102094.59;;;8.15;70.32
59951;BME280;45812;53.540;9.774;2023-04-27T07:52:53;102091.38;;;8.23;70.19
59951;BME280;45812;53.540;9.774;2023-04-27T07:55:20;102100.28;;;8.46;70.90
59951;BME280;45812;53.540;9.774;2023-04-27T07:57:46;102097.88;;;8.54;70.90
59951;BME280;45812;53.540;9.774;2023-04-27T08:00:11;102096.94;;;8.66;67.59
59951;BME280;45812;53.540;9.774;2023-04-27T08:02:37;102092.38;;;8.91;68.17
59951;BME280;45812;53.540;9.774;2023-04-27T08:05:02;102089.84;;;9.23;66.12
59951;BME280;45812;53.540;9.774;2023-04-27T08:07:28;102084.97;;;9.39;67.27
59951;BME280;45812;53.540;9.774;2023-04-27T08:09:54;102090.53;;;9.36;66.63
59951;BME280;45812;53.540;9.774;2023-04-27T08:12:19;102078.47;;;9.21;63.67
59951;BME280;45812;53.540;9.774;2023-04-27T08:14:44;102077.53;;;8.99;66.14
59951;BME280;45812;53.540;9.774;2023-04-27T08:17:10;102077.41;;;8.90;69.18
59951;BME280;45812;53.540;9.774;2023-04-27T08:19:36;102082.72;;;8.90;69.39
59951;BME280;45812;53.540;9.774;2023-04-27T08:22:01;102080.31;;;8.98;65.02
59951;BME280;45812;53.540;9.774;2023-04-27T08:24:27;102064.47;;;9.30;64.77
59951;BME280;45812;53.540;9.774;2023-04-27T08:26:52;102072.84;;;9.68;62.97
59951;BME280;45812;53.540;9.774;2023-04-27T08:29:18;102070.38;;;10.09;60.58
59951;BME280;45812;53.540;9.774;2023-04-27T08:31:43;102063.22;;;10.41;57.18
59951;BME280;45812;53.540;9.774;2023-04-27T08:34:08;102063.75;;;10.66;57.82
59951;BME280;45812;53.540;9.774;2023-04-27T08:36:33;102068.84;;;10.78;55.60
59951;BME280;45812;53.540;9.774;2023-04-27T08:38:59;102077.03;;;10.86;54.45
59951;BME280;45812;53.540;9.774;2023-04-27T08:41:24;102067.63;;;10.82;53.45
59951;BME280;45812;53.540;9.774;2023-04-27T08:43:51;102064.78;;;10.74;52.50
59951;BME280;45812;53.540;9.774;2023-04-27T08:46:18;102071.06;;;10.43;51.16
59951;BME280;45812;53.540;9.774;2023-04-27T08:48:46;102065.94;;;10.30;53.03
59951;BME280;45812;53.540;9.774;2023-04-27T08:51:13;102070.84;;;10.35;53.58
59951;BME280;45812;53.540;9.774;2023-04-27T08:53:46;102063.31;;;10.40;54.39
59951;BME280;45812;53.540;9.774;2023-04-27T08:56:12;102061.69;;;10.69;53.04
59951;BME280;45812;53.540;9.774;2023-04-27T08:58:37;102057.72;;;10.94;52.36
59951;BME280;45812;53.540;9.774;2023-04-27T09:01:06;102064.91;;;11.03;51.27
59951;BME280;45812;53.540;9.774;2023-04-27T09:03:32;102063.31;;;10.91;50.85
59951;BME280;45812;53.540;9.774;2023-04-27T09:05:58;102063.22;;;10.72;51.13
59951;BME280;45812;53.540;9.774;2023-04-27T09:08:23;102069.25;;;10.74;51.01
59951;BME280;45812;53.540;9.774;2023-04-27T09:10:49;102067.72;;;11.02;49.27
59951;BME280;45812;53.540;9.774;2023-04-27T09:13:16;102061.94;;;11.46;48.11
59951;BME280;45812;53.540;9.774;2023-04-27T09:15:48;102061.56;;;11.90;47.98
59951;BME280;45812;53.540;9.774;2023-04-27T09:18:18;102056.50;;;12.25;46.38
59951;BME280;45812;53.540;9.774;2023-04-27T09:20:50;102060.22;;;12.61;45.66
59951;BME280;45812;53.540;9.774;2023-04-27T09:25:52;102059.16;;;13.19;43.26
59951;BME280;45812;53.540;9.774;2023-04-27T09:28:17;102054.16;;;13.06;41.46
59951;BME280;45812;53.540;9.774;2023-04-27T09:30:53;102066.59;;;12.88;42.32
59951;BME280;45812;53.540;9.774;2023-04-27T09:33:26;102068.66;;;12.57;43.06
59951;BME280;45812;53.540;9.774;2023-04-27T09:35:52;102068.56;;;12.49;43.90
59951;BME280;45812;53.540;9.774;2023-04-27T09:38:19;102069.94;;;12.53;42.20
59951;BME280;45812;53.540;9.774;2023-04-27T09:40:46;102063.53;;;12.36;42.63
59951;BME280;45812;53.540;9.774;2023-04-27T09:43:11;102063.41;;;12.18;43.66
59951;BME280;45812;53.540;9.774;2023-04-27T09:45:37;102059.75;;;12.29;44.83
59951;BME280;45812;53.540;9.774;2023-04-27T09:48:04;102058.53;;;12.70;44.01
59951;BME280;45812;53.540;9.774;2023-04-27T09:50:30;102048.13;;;13.31;42.87
59951;BME280;45812;53.540;9.774;2023-04-27T09:52:58;102050.28;;;13.46;41.67
59951;BME280;45812;53.540;9.774;2023-04-27T09:55:27;102048.69;;;13.71;42.05
59951;BME280;45812;53.540;9.774;2023-04-27T09:58:12;102046.09;;;13.97;40.39
59951;BME280;45812;53.540;9.774;2023-04-27T10:04:07;102055.59;;;14.52;41.07
59951;BME280;45812;53.540;9.774;2023-04-27T10:09:25;102053.63;;;14.63;39.85
59951;BME280;45812;53.540;9.774;2023-04-27T10:11:53;102052.25;;;15.27;37.30
59951;BME280;45812;53.540;9.774;2023-04-27T10:14:20;102051.72;;;15.82;36.46
59951;BME280;45812;53.540;9.774;2023-04-27T10:16:52;102041.63;;;16.16;36.72
59951;BME280;45812;53.540;9.774;2023-04-27T10:19:19;102045.69;;;16.20;35.83
59951;BME280;45812;53.540;9.774;2023-04-27T10:21:55;102047.28;;;16.62;35.62
59951;BME280;45812;53.540;9.774;2023-04-27T10:24:33;102050.16;;;16.77;35.55
59951;BME280;45812;53.540;9.774;2023-04-27T10:27:07;102048.53;;;16.27;36.84
59951;BME280;45812;53.540;9.774;2023-04-27T10:29:34;102046.38;;;16.06;36.83
59951;BME280;45812;53.540;9.774;2023-04-27T10:32:05;102057.09;;;15.82;36.76
59951;BME280;45812;53.540;9.774;2023-04-27T10:34:33;102067.53;;;15.34;36.11
59951;BME280;45812;53.540;9.774;2023-04-27T10:37:09;102060.59;;;14.81;37.08
59951;BME280;45812;53.540;9.774;2023-04-27T10:39:37;102054.97;;;14.67;37.88
59951;BME280;45812;53.540;9.774;2023-04-27T10:42:03;102081.91;;;14.57;39.85
59951;BME280;45812;53.540;9.774;2023-04-27T10:44:31;102075.56;;;14.40;41.54
59951;BME280;45812;53.540;9.774;2023-04-27T10:46:59;102076.53;;;14.13;40.96
59951;BME280;45812;53.540;9.774;2023-04-27T10:49:26;102073.56;;;13.81;42.13
59951;BME280;45812;53.540;9.774;2023-04-27T10:51:52;102072.78;;;13.88;42.97
59951;BME280;45812;53.540;9.774;2023-04-27T10:54:17;102065.13;;;13.93;42.41
59951;BME280;45812;53.540;9.774;2023-04-27T10:56:43;102057.03;;;14.03;41.31
59951;BME280;45812;53.540;9.774;2023-04-27T10:59:09;102070.53;;;14.37;40.82
59951;BME280;45812;53.540;9.774;2023-04-27T11:01:35;102069.19;;;14.41;39.95
59951;BME280;45812;53.540;9.774;2023-04-27T11:04:01;102073.69;;;14.59;39.99
59951;BME280;45812;53.540;9.774;2023-04-27T11:06:28;102064.09;;;14.74;39.45
59951;BME280;45812;53.540;9.774;2023-04-27T11:08:55;102062.03;;;14.68;39.86
59951;BME280;45812;53.540;9.774;2023-04-27T11:11:20;102059.84;;;15.48;38.67
59951;BME280;45812;53.540;9.774;2023-04-27T11:13:50;102057.25;;;16.37;36.60
59951;BME280;45812;53.540;9.774;2023-04-27T11:16:20;102043.66;;;15.98;37.93
59951;BME280;45812;53.540;9.774;2023-04-27T11:18:45;102046.97;;;15.59;38.45
59951;BME280;45812;53.540;9.774;2023-04-27T11:21:13;102052.72;;;15.72;38.27
59951;BME280;45812;53.540;9.774;2023-04-27T11:23:39;102061.59;;;15.73;36.96
59951;BME280;45812;53.540;9.774;2023-04-27T11:26:09;102055.78;;;16.02;37.13
59951;BME280;45812;53.540;9.774;2023-04-27T11:28:34;102063.78;;;16.51;35.04
59951;BME280;45812;53.540;9.774;2023-04-27T11:31:00;102063.56;;;17.24;34.82
59951;BME280;45812;53.540;9.774;2023-04-27T11:33:26;102067.69;;;17.04;35.54
59951;BME280;45812;53.540;9.774;2023-04-27T11:35:52;102062.75;;;16.76;36.95
59951;BME280;45812;53.540;9.774;2023-04-27T11:38:19;102069.00;;;17.08;35.44
59951;BME280;45812;53.540;9.774;2023-04-27T11:41:02;102054.25;;;18.49;33.43
59951;BME280;45812;53.540;9.774;2023-04-27T11:43:28;102060.69;;;21.87;28.02
59951;BME280;45812;53.540;9.774;2023-04-27T11:45:54;102061.28;;;21.62;27.83
59951;BME280;45812;53.540;9.774;2023-04-27T11:48:22;102045.91;;;20.80;29.98
59951;BME280;45812;53.540;9.774;2023-04-27T11:50:48;102047.56;;;20.19;29.18
59951;BME280;45812;53.540;9.774;2023-04-27T11:53:13;102043.22;;;19.96;29.60
59951;BME280;45812;53.540;9.774;2023-04-27T11:55:39;102053.94;;;19.32;30.26
59951;BME280;45812;53.540;9.774;2023-04-27T11:58:14;102048.47;;;18.52;31.32
59951;BME280;45812;53.540;9.774;2023-04-27T12:00:40;102047.56;;;17.84;32.00
59951;BME280;45812;53.540;9.774;2023-04-27T12:03:06;102053.16;;;18.21;32.19
59951;BME280;45812;53.540;9.774;2023-04-27T12:05:31;102051.94;;;18.75;30.67
59951;BME280;45812;53.540;9.774;2023-04-27T12:07:57;102053.34;;;18.19;31.61
59951;BME280;45812;53.540;9.774;2023-04-27T12:10:22;102048.69;;;17.67;31.80
59951;BME280;45812;53.540;9.774;2023-04-27T12:12:48;102053.53;;;17.10;32.80
59951;BME280;45812;53.540;9.774;2023-04-27T12:15:13;102058.88;;;16.62;34.48
59951;BME280;45812;53.540;9.774;2023-04-27T12:17:38;102053.91;;;16.11;34.55
59951;BME280;45812;53.540;9.774;2023-04-27T12:20:04;102055.09;;;15.84;35.46
59951;BME280;45812;53.540;9.774;2023-04-27T12:22:30;102053.38;;;15.66;36.40
59951;BME280;45812;53.540;9.774;2023-04-27T12:24:55;102061.69;;;15.47;36.67
59951;BME280;45812;53.540;9.774;2023-04-27T12:27:20;102057.50;;;15.44;36.63
59951;BME280;45812;53.540;9.774;2023-04-27T12:29:46;102062.72;;;15.46;36.06
59951;BME280;45812;53.540;9.774;2023-04-27T12:32:11;102047.44;;;15.55;36.57
59951;BME280;45812;53.540;9.774;2023-04-27T12:34:36;102062.38;;;15.57;36.59
59951;BME280;45812;53.540;9.774;2023-04-27T12:37:03;102059.34;;;15.44;37.16
59951;BME280;45812;53.540;9.774;2023-04-27T12:39:29;102060.56;;;15.07;37.46
59951;BME280;45812;53.540;9.774;2023-04-27T12:41:54;102058.22;;;14.70;38.96
59951;BME280;45812;53.540;9.774;2023-04-27T12:44:20;102069.06;;;14.25;39.82
59951;BME280;45812;53.540;9.774;2023-04-27T12:46:46;102064.53;;;13.82;41.10
59951;BME280;45812;53.540;9.774;2023-04-27T12:49:14;102065.13;;;13.58;41.36
59951;BME280;45812;53.540;9.774;2023-04-27T12:51:40;102068.47;;;13.42;41.58
59951;BME280;45812;53.540;9.774;2023-04-27T12:54:07;102072.19;;;13.31;42.03
59951;BME280;45812;53.540;9.774;2023-04-27T12:56:32;102070.69;;;13.19;43.68
59951;BME280;45812;53.540;9.774;2023-04-27T12:58:58;102065.97;;;13.03;43.55